Time;durP1;ratioP1;P1;durP2;ratioP2;P2;SDS_P1;SDS_P2;PMS_P1;PMS_P2;Temp;Humidity;BMP_temperature;BMP_pressure;BME280_temperature;BME280_humidity;BME280_pressure;Samples;Min_cycle;Max_cycle;Signal;HPM_P1;HPM_P2
2021/11/04 00:01:37;;;;;;;19.67;12.25;;;7.40;99.90;;;;;;5132660;28;20026;-73
2021/11/04 00:04:04;;;;;;;16.50;12.32;;;7.40;99.90;;;;;;5132572;28;20058;-72
2021/11/04 00:06:30;;;;;;;21.30;12.85;;;7.40;99.90;;;;;;5132864;27;20029;-72
2021/11/04 00:08:56;;;;;;;21.05;13.13;;;7.40;99.90;;;;;;5136059;27;20046;-72
2021/11/04 00:11:21;;;;;;;18.50;12.63;;;7.50;99.90;;;;;;5136775;27;20023;-72
2021/11/04 00:13:47;;;;;;;22.17;12.57;;;7.50;99.90;;;;;;5136286;27;20022;-72
2021/11/04 00:16:13;;;;;;;21.48;12.40;;;7.50;99.90;;;;;;5136699;27;20054;-72
2021/11/04 00:18:39;;;;;;;23.05;12.98;;;7.50;99.90;;;;;;5135912;27;20120;-72
2021/11/04 00:21:06;;;;;;;18.92;11.35;;;7.50;99.90;;;;;;5136344;27;20034;-72
2021/11/04 00:23:32;;;;;;;17.63;11.93;;;7.50;99.90;;;;;;5136324;27;20114;-72
2021/11/04 00:25:58;;;;;;;26.42;12.77;;;7.50;99.90;;;;;;5136093;27;20068;-72
2021/11/04 00:28:24;;;;;;;17.83;11.98;;;7.40;99.90;;;;;;5136036;27;20019;-72
2021/11/04 00:30:49;;;;;;;20.17;12.60;;;7.50;99.90;;;;;;5134834;27;20023;-71
2021/11/04 00:33:15;;;;;;;18.83;12.45;;;7.50;99.90;;;;;;5136208;27;20019;-71
2021/11/04 00:35:41;;;;;;;19.00;12.93;;;7.50;99.90;;;;;;5135827;27;20368;-71
2021/11/04 00:38:07;;;;;;;21.25;13.02;;;7.50;99.90;;;;;;5135885;27;20076;-71
2021/11/04 00:40:33;;;;;;;22.10;12.23;;;7.50;99.90;;;;;;5136122;27;20067;-71
2021/11/04 00:42:59;;;;;;;17.90;12.18;;;7.50;99.90;;;;;;5135935;27;20118;-71
2021/11/04 00:45:25;;;;;;;15.40;11.02;;;7.50;99.90;;;;;;5135999;27;20493;-71
2021/11/04 00:47:52;;;;;;;16.92;11.52;;;7.50;99.90;;;;;;5135603;27;20167;-71
2021/11/04 00:50:20;;;;;;;17.35;11.63;;;7.50;99.90;;;;;;5135727;27;20071;-71
2021/11/04 00:52:45;;;;;;;18.30;10.77;;;7.50;99.90;;;;;;5135520;27;20024;-71
2021/11/04 00:55:11;;;;;;;15.57;10.88;;;7.50;99.90;;;;;;5135479;27;20407;-71
2021/11/04 00:57:38;;;;;;;17.17;11.57;;;7.50;99.90;;;;;;5135433;27;20027;-71
2021/11/04 01:00:08;;;;;;;18.75;12.27;;;7.50;99.90;;;;;;5135170;27;20047;-71
2021/11/04 01:02:33;;;;;;;15.82;11.25;;;7.50;99.90;;;;;;5135858;27;20031;-71
2021/11/04 01:05:01;;;;;;;15.30;12.40;;;7.50;99.90;;;;;;5135408;27;20047;-72
2021/11/04 01:07:27;;;;;;;19.05;12.38;;;7.50;99.90;;;;;;5135434;27;20027;-72
2021/11/04 01:09:53;;;;;;;18.65;11.80;;;7.50;99.90;;;;;;5135128;27;20064;-72
2021/11/04 01:12:18;;;;;;;21.05;12.50;;;7.50;99.90;;;;;;5135589;27;20023;-72
2021/11/04 01:14:45;;;;;;;20.00;12.13;;;7.50;99.90;;;;;;5134939;27;20042;-71
2021/11/04 01:17:11;;;;;;;19.10;11.82;;;7.50;99.90;;;;;;5135455;27;20449;-72
2021/11/04 01:19:37;;;;;;;16.55;12.05;;;7.50;99.90;;;;;;5134715;27;20114;-72
2021/11/04 01:22:03;;;;;;;19.10;12.65;;;7.50;99.90;;;;;;5134905;27;20034;-72
2021/11/04 01:24:29;;;;;;;17.45;11.65;;;7.40;99.90;;;;;;5134920;27;20035;-71
2021/11/04 01:26:54;;;;;;;16.92;11.80;;;7.40;99.90;;;;;;5134864;27;20031;-70
2021/11/04 01:29:20;;;;;;;17.58;11.65;;;7.50;99.90;;;;;;5134878;27;20474;-71
2021/11/04 01:31:46;;;;;;;17.20;12.40;;;7.40;99.90;;;;;;5134743;27;20079;-70
2021/11/04 01:34:12;;;;;;;15.68;11.90;;;7.40;99.90;;;;;;5134745;27;20058;-74
2021/11/04 01:36:38;;;;;;;17.52;11.80;;;7.30;99.90;;;;;;5134814;27;20039;-74
2021/11/04 01:39:04;;;;;;;16.02;11.35;;;7.30;99.90;;;;;;5134515;27;20034;-74
2021/11/04 01:41:30;;;;;;;14.88;10.57;;;7.30;99.90;;;;;;5133405;27;20433;-74
2021/11/04 01:43:56;;;;;;;15.57;10.20;;;7.30;99.90;;;;;;5134282;27;20031;-74
2021/11/04 01:46:23;;;;;;;12.70;10.10;;;7.30;99.90;;;;;;5134593;27;20356;-74
2021/11/04 01:48:49;;;;;;;16.60;10.43;;;7.40;99.90;;;;;;5134289;27;20103;-74
2021/11/04 01:51:17;;;;;;;15.07;10.50;;;7.40;99.90;;;;;;5134780;27;20360;-74
2021/11/04 01:53:43;;;;;;;14.07;10.40;;;7.40;99.90;;;;;;5134191;27;20076;-74
2021/11/04 01:56:09;;;;;;;8.57;7.10;;;7.30;99.90;;;;;;5134304;27;20039;-75
2021/11/04 01:58:35;;;;;;;8.02;6.72;;;7.30;99.90;;;;;;5134480;27;20027;-75
2021/11/04 02:01:01;;;;;;;10.10;7.72;;;7.30;99.90;;;;;;5133966;27;20525;-75
2021/11/04 02:03:51;;;;;;;9.80;7.32;;;7.20;99.90;;;;;;5134077;27;20126;-75
2021/11/04 02:06:45;;;;;;;7.67;6.10;;;7.20;99.90;;;;;;5134244;27;20534;-75
2021/11/04 02:09:15;;;;;;;6.57;5.55;;;7.20;99.90;;;;;;5133667;27;20035;-75
2021/11/04 02:11:52;;;;;;;6.95;5.82;;;7.30;99.90;;;;;;5133973;27;20023;-75
2021/11/04 02:14:27;;;;;;;6.55;5.57;;;7.30;99.90;;;;;;5134159;27;20034;-75
2021/11/04 02:16:57;;;;;;;7.95;5.88;;;7.30;99.90;;;;;;5133822;27;20023;-75
2021/11/04 02:19:25;;;;;;;7.47;5.20;;;7.40;99.90;;;;;;5133726;27;20046;-76
2021/11/04 02:22:02;;;;;;;5.47;4.80;;;7.40;99.90;;;;;;5133750;27;20102;-73
2021/11/04 02:55:58;;;;;;;10.20;8.13;;;7.30;99.90;;;;;;5132975;27;20027;-75
2021/11/04 02:58:25;;;;;;;11.55;8.02;;;7.30;99.90;;;;;;5133371;27;20046;-74
2021/11/04 03:00:55;;;;;;;11.55;8.40;;;7.20;99.90;;;;;;5133036;27;20043;-74
2021/11/04 03:03:21;;;;;;;9.15;7.75;;;7.20;99.90;;;;;;5133232;27;20074;-74
2021/11/04 03:05:46;;;;;;;13.55;8.13;;;7.20;99.90;;;;;;5133401;27;20050;-74
2021/11/04 03:08:12;;;;;;;10.23;7.85;;;7.20;99.90;;;;;;5132967;27;20030;-74
2021/11/04 03:10:38;;;;;;;11.45;8.40;;;7.20;99.90;;;;;;5133234;27;20062;-74
2021/11/04 03:13:04;;;;;;;11.68;8.30;;;7.20;99.90;;;;;;5133055;27;20075;-75
2021/11/04 03:15:37;;;;;;;11.23;8.25;;;7.20;99.90;;;;;;5133020;27;20027;-76
2021/11/04 03:18:04;;;;;;;12.95;9.00;;;7.20;99.90;;;;;;5133239;27;20420;-76
2021/11/04 03:20:30;;;;;;;12.55;8.10;;;7.20;99.90;;;;;;5132670;27;20028;-73
2021/11/04 03:22:57;;;;;;;13.70;9.32;;;7.20;99.90;;;;;;5132745;27;20081;-73
2021/11/04 03:25:23;;;;;;;15.52;9.68;;;7.20;99.90;;;;;;5132614;27;20479;-74
2021/11/04 03:27:52;;;;;;;13.15;9.43;;;7.20;99.90;;;;;;5132872;28;20176;-73
2021/11/04 03:30:25;;;;;;;14.60;10.10;;;7.20;99.90;;;;;;5132624;28;20486;-73
2021/11/04 03:32:55;;;;;;;14.90;9.90;;;7.20;99.90;;;;;;5132875;28;20034;-74
2021/11/04 03:35:22;;;;;;;14.90;9.63;;;7.20;99.90;;;;;;5132664;28;20074;-74
2021/11/04 03:37:50;;;;;;;14.77;9.75;;;7.20;99.90;;;;;;5132744;28;20050;-76
2021/11/04 03:40:16;;;;;;;15.95;10.10;;;7.20;99.90;;;;;;5132615;28;20530;-76
2021/11/04 03:42:42;;;;;;;13.95;10.02;;;7.20;99.90;;;;;;5136219;27;20031;-76
2021/11/04 03:45:10;;;;;;;12.40;8.98;;;7.20;99.90;;;;;;5136762;27;20016;-74
2021/11/04 03:47:36;;;;;;;11.60;8.57;;;7.20;99.90;;;;;;5137304;27;20611;-76
2021/11/04 03:50:04;;;;;;;13.40;9.05;;;7.20;99.90;;;;;;5135579;27;20023;-76
2021/11/04 03:52:30;;;;;;;11.85;8.45;;;7.20;99.90;;;;;;5137005;27;20031;-76
2021/11/04 03:54:56;;;;;;;9.25;7.47;;;7.20;99.90;;;;;;5136659;27;20102;-76
2021/11/04 03:57:26;;;;;;;9.40;7.43;;;7.10;99.90;;;;;;5136655;27;20030;-76
2021/11/04 03:59:53;;;;;;;8.17;6.70;;;7.20;99.90;;;;;;5136438;27;20095;-76
2021/11/04 04:02:23;;;;;;;8.55;6.68;;;7.10;99.90;;;;;;5136387;27;20485;-76
2021/11/04 04:04:54;;;;;;;8.52;6.97;;;7.10;99.90;;;;;;5136496;27;20502;-76
2021/11/04 04:07:25;;;;;;;9.48;6.60;;;7.10;99.90;;;;;;5136644;27;20084;-76
2021/11/04 04:09:50;;;;;;;8.70;6.72;;;7.10;99.90;;;;;;5136671;27;20023;-74
2021/11/04 04:12:16;;;;;;;9.20;7.40;;;7.20;99.90;;;;;;5136333;27;20027;-73
2021/11/04 04:14:42;;;;;;;9.95;7.50;;;7.20;99.90;;;;;;5136403;27;20019;-73
2021/11/04 04:17:08;;;;;;;9.05;7.00;;;7.10;99.90;;;;;;5136498;27;20023;-73
2021/11/04 04:19:33;;;;;;;8.93;7.30;;;7.10;99.90;;;;;;5136169;27;20626;-73
2021/11/04 04:22:00;;;;;;;10.10;7.55;;;7.10;99.90;;;;;;5136133;27;20027;-73
2021/11/04 04:24:26;;;;;;;9.90;7.10;;;7.10;99.90;;;;;;5136327;27;20027;-73
2021/11/04 04:26:51;;;;;;;10.43;7.72;;;7.10;99.90;;;;;;5136177;27;20467;-72
2021/11/04 04:29:17;;;;;;;10.75;8.40;;;7.20;99.90;;;;;;5135773;27;20110;-72
2021/11/04 04:31:43;;;;;;;11.05;8.35;;;7.20;99.90;;;;;;5136084;27;20015;-72
2021/11/04 04:34:10;;;;;;;10.20;7.65;;;7.20;99.90;;;;;;5135919;27;20042;-72
2021/11/04 04:36:36;;;;;;;11.18;8.40;;;7.20;99.90;;;;;;5136160;27;20076;-72
2021/11/04 04:39:02;;;;;;;12.60;9.18;;;7.20;99.90;;;;;;5136130;27;20023;-72
2021/11/04 04:41:28;;;;;;;12.80;9.18;;;7.20;99.90;;;;;;5135967;27;20023;-72
2021/11/04 04:43:54;;;;;;;12.77;9.52;;;7.20;99.90;;;;;;5136028;27;20530;-72
2021/11/04 04:46:21;;;;;;;11.77;9.20;;;7.20;99.90;;;;;;5135540;27;20486;-74
2021/11/04 04:48:47;;;;;;;15.82;10.35;;;7.20;99.90;;;;;;5135667;27;20483;-75
2021/11/04 04:51:14;;;;;;;16.38;11.18;;;7.20;99.90;;;;;;5135748;27;20023;-75
2021/11/04 04:53:39;;;;;;;15.63;11.25;;;7.20;99.90;;;;;;5135014;27;20382;-75
2021/11/04 04:56:05;;;;;;;16.25;11.10;;;7.20;99.90;;;;;;5135509;27;20031;-75
2021/11/04 04:58:31;;;;;;;15.45;10.95;;;7.20;99.90;;;;;;5135718;27;20019;-75
2021/11/04 05:00:57;;;;;;;17.50;11.43;;;7.20;99.90;;;;;;5135379;27;20043;-74
2021/11/04 05:03:22;;;;;;;15.52;12.02;;;7.20;99.90;;;;;;5135272;27;20482;-74
2021/11/04 05:05:48;;;;;;;17.80;12.85;;;7.20;99.90;;;;;;5135631;27;20042;-73
2021/11/04 05:08:14;;;;;;;17.73;12.20;;;7.20;99.90;;;;;;5135182;27;20364;-72
2021/11/04 05:10:40;;;;;;;15.45;11.93;;;7.20;99.90;;;;;;5135592;27;20019;-72
2021/11/04 05:13:05;;;;;;;15.82;11.65;;;7.20;99.90;;;;;;5135418;27;20118;-72
2021/11/04 05:15:31;;;;;;;17.30;12.25;;;7.20;99.90;;;;;;5135052;27;20034;-72
2021/11/04 05:17:57;;;;;;;18.45;13.18;;;7.20;99.90;;;;;;5135494;27;20494;-72
2021/11/04 05:20:24;;;;;;;18.83;12.73;;;7.20;99.90;;;;;;5135221;27;20378;-73
2021/11/04 05:22:50;;;;;;;20.60;12.50;;;7.30;99.90;;;;;;5135452;27;20287;-74
2021/11/04 05:25:16;;;;;;;19.85;12.63;;;7.20;99.90;;;;;;5135230;27;20492;-73
2021/11/04 05:27:47;;;;;;;18.30;12.52;;;7.20;99.90;;;;;;5134943;27;20031;-75
2021/11/04 05:30:15;;;;;;;18.55;12.35;;;7.20;99.90;;;;;;5134864;27;20095;-75
2021/11/04 05:32:41;;;;;;;18.90;12.73;;;7.20;99.90;;;;;;5134896;27;20027;-70
2021/11/04 05:35:07;;;;;;;19.20;12.57;;;7.10;99.90;;;;;;5135079;27;20034;-69
2021/11/04 05:37:33;;;;;;;9.98;5.00;;;7.10;99.90;;;;;;5134562;27;20483;-67
2021/11/04 05:39:58;;;;;;;8.30;4.00;;;7.20;99.90;;;;;;5134574;27;20195;-68
2021/11/04 05:42:24;;;;;;;16.88;11.18;;;8.80;99.90;;;;;;5134380;27;20023;-67
2021/11/04 05:44:50;;;;;;;14.35;10.05;;;10.10;99.90;;;;;;5134387;27;20023;-68
2021/11/04 05:47:17;;;;;;;13.65;9.82;;;10.00;99.90;;;;;;5139616;27;20075;-68
2021/11/04 05:49:43;;;;;;;12.98;9.70;;;9.40;99.90;;;;;;5143424;27;20023;-68
2021/11/04 05:52:09;;;;;;;15.18;10.13;;;9.00;99.90;;;;;;5145567;27;20478;-70
2021/11/04 05:54:38;;;;;;;13.48;9.82;;;9.00;99.90;;;;;;5144011;27;20375;-70
2021/11/04 05:57:04;;;;;;;11.75;8.45;;;8.80;99.90;;;;;;5136549;27;20570;-70
2021/11/04 05:59:29;;;;;;;12.70;9.10;;;8.50;99.90;;;;;;5143897;27;20122;-68
2021/11/04 06:01:55;;;;;;;11.68;8.75;;;8.10;99.90;;;;;;5154596;27;20050;-68
2021/11/04 06:04:22;;;;;;;13.45;8.55;;;8.00;99.90;;;;;;5141155;27;20023;-68
2021/11/04 06:06:48;;;;;;;13.68;9.35;;;7.80;99.90;;;;;;5131957;27;20394;-68
2021/11/04 06:09:14;;;;;;;16.50;9.15;;;7.70;99.90;;;;;;5134026;27;20115;-70
2021/11/04 06:11:40;;;;;;;12.10;9.25;;;7.70;99.90;;;;;;5145104;27;20112;-69
2021/11/04 06:14:07;;;;;;;9.88;7.88;;;7.70;99.90;;;;;;5142979;27;20499;-65
2021/11/04 06:16:33;;;;;;;12.85;8.57;;;7.60;99.90;;;;;;5143887;27;20018;-65
2021/11/04 06:18:59;;;;;;;10.85;7.93;;;7.50;99.90;;;;;;5144820;27;20492;-65
2021/11/04 06:21:25;;;;;;;9.45;7.95;;;7.40;99.90;;;;;;5148725;27;20105;-65
2021/11/04 06:23:50;;;;;;;12.60;8.55;;;7.50;99.90;;;;;;5155053;27;20062;-65
2021/11/04 06:26:17;;;;;;;10.88;7.97;;;7.50;99.90;;;;;;5153834;27;20423;-65
2021/11/04 06:28:43;;;;;;;9.98;7.68;;;7.60;99.90;;;;;;5154213;27;20105;-64
2021/11/04 06:31:09;;;;;;;9.75;7.45;;;7.50;99.90;;;;;;5154530;27;20026;-64
2021/11/04 06:33:35;;;;;;;12.20;8.55;;;7.50;99.90;;;;;;5154252;27;20038;-64
2021/11/04 06:36:01;;;;;;;9.55;8.05;;;7.50;99.90;;;;;;5154154;27;20466;-64
2021/11/04 06:38:27;;;;;;;11.10;8.32;;;7.50;99.90;;;;;;5154121;27;20054;-64
2021/11/04 06:40:53;;;;;;;9.98;7.63;;;7.40;99.90;;;;;;5154144;27;20049;-64
2021/11/04 06:43:19;;;;;;;11.68;8.73;;;7.40;99.90;;;;;;5154207;27;20443;-64
2021/11/04 06:45:51;;;;;;;25.92;8.80;;;7.30;99.90;;;;;;5154330;27;20033;-64
2021/11/04 06:48:26;;;;;;;15.85;8.10;;;7.80;99.90;;;;;;5154064;27;20086;-62
2021/11/04 06:50:57;;;;;;;10.55;8.40;;;8.30;99.90;;;;;;5153685;27;20114;-63
2021/11/04 06:53:26;;;;;;;9.88;7.80;;;8.00;99.90;;;;;;5153674;27;20395;-66
2021/11/04 06:55:54;;;;;;;11.35;8.07;;;7.80;99.90;;;;;;5153868;27;20018;-66
2021/11/04 06:58:27;;;;;;;9.23;7.70;;;7.70;99.90;;;;;;5153994;27;20019;-66
2021/11/04 07:00:54;;;;;;;11.15;8.40;;;7.60;99.90;;;;;;5153553;27;20046;-69
2021/11/04 07:03:27;;;;;;;11.70;8.25;;;7.50;99.90;;;;;;5153714;27;20058;-68
2021/11/04 07:06:08;;;;;;;10.35;8.45;;;7.60;99.90;;;;;;5153676;27;20026;-68
2021/11/04 07:08:41;;;;;;;10.23;8.23;;;7.60;99.90;;;;;;5153681;27;20163;-67
2021/11/04 07:11:09;;;;;;;10.93;8.45;;;7.60;99.90;;;;;;5154048;27;20026;-67
2021/11/04 07:13:35;;;;;;;11.30;8.18;;;7.50;99.90;;;;;;5142733;27;20064;-67
2021/11/04 07:16:02;;;;;;;11.90;8.80;;;7.50;99.90;;;;;;5131917;27;20015;-69
2021/11/04 07:18:28;;;;;;;13.27;9.57;;;7.40;99.90;;;;;;5132473;27;20023;-68
2021/11/04 07:21:04;;;;;;;18.08;10.18;;;7.40;99.90;;;;;;5131906;27;20019;-69
2021/11/04 07:23:55;;;;;;;15.25;10.75;;;7.40;99.90;;;;;;5132059;27;20042;-65
2021/11/04 07:26:31;;;;;;;13.48;9.27;;;7.40;99.90;;;;;;5130716;27;20372;-65
2021/11/04 07:28:59;;;;;;;13.85;9.73;;;7.30;99.90;;;;;;5132110;28;20023;-65
2021/11/04 07:31:27;;;;;;;18.60;9.10;;;7.30;99.90;;;;;;5132251;28;20790;-66
2021/11/04 07:33:54;;;;;;;11.55;8.60;;;7.50;99.90;;;;;;5132427;28;20102;-66
2021/11/04 07:36:20;;;;;;;10.35;7.90;;;7.60;99.90;;;;;;5132318;28;20031;-66
2021/11/04 07:38:47;;;;;;;12.02;8.23;;;7.50;99.90;;;;;;5131225;28;20023;-67
2021/11/04 07:41:14;;;;;;;10.85;8.35;;;7.40;99.90;;;;;;5132350;28;20034;-67
2021/11/04 07:43:40;;;;;;;11.23;7.85;;;7.40;99.90;;;;;;5132269;28;20100;-66
2021/11/04 07:46:07;;;;;;;10.15;7.70;;;7.40;99.90;;;;;;5132692;28;20471;-66
2021/11/04 07:48:32;;;;;;;10.65;7.97;;;7.30;99.90;;;;;;5130460;28;20492;-66
2021/11/04 07:50:58;;;;;;;10.73;8.00;;;7.30;99.90;;;;;;5132139;28;20106;-66
2021/11/04 07:53:25;;;;;;;10.10;7.30;;;7.30;99.90;;;;;;5140736;27;20082;-66
2021/11/04 07:55:51;;;;;;;12.77;7.97;;;7.30;99.90;;;;;;5152970;27;20530;-67
2021/11/04 07:58:17;;;;;;;12.27;8.00;;;7.30;99.90;;;;;;5153302;27;20026;-66
2021/11/04 08:00:43;;;;;;;10.15;8.30;;;7.30;99.90;;;;;;5152860;27;20501;-66
2021/11/04 08:03:09;;;;;;;12.73;8.73;;;7.20;99.90;;;;;;5153176;27;20070;-65
2021/11/04 08:05:36;;;;;;;14.95;9.57;;;7.20;99.90;;;;;;5145888;27;20018;-65
2021/11/04 08:08:04;;;;;;;14.32;9.60;;;7.20;99.90;;;;;;5139488;27;20099;-65
2021/11/04 08:10:30;;;;;;;14.43;10.85;;;7.10;99.90;;;;;;5137346;27;20050;-65
2021/11/04 08:13:02;;;;;;;14.93;10.60;;;7.20;99.90;;;;;;5130633;28;20475;-65
2021/11/04 08:15:28;;;;;;;13.75;10.77;;;7.20;99.90;;;;;;5135820;27;20025;-65
2021/11/04 08:17:54;;;;;;;10.85;8.45;;;7.20;99.90;;;;;;5152564;27;20105;-65
2021/11/04 08:20:20;;;;;;;11.02;8.57;;;7.20;99.90;;;;;;5135414;27;20027;-65
2021/11/04 08:22:45;;;;;;;11.43;7.70;;;7.10;99.90;;;;;;5130250;28;20080;-66
2021/11/04 08:25:11;;;;;;;10.05;8.18;;;7.10;99.90;;;;;;5123221;28;20035;-65
2021/11/04 08:27:37;;;;;;;10.43;8.20;;;7.00;99.90;;;;;;5111625;28;20097;-66
2021/11/04 08:30:04;;;;;;;11.65;8.48;;;7.00;99.90;;;;;;5120324;27;20560;-65
2021/11/04 08:32:30;;;;;;;14.07;8.70;;;7.10;99.90;;;;;;5141463;27;20461;-65
2021/11/04 08:34:56;;;;;;;12.63;8.80;;;7.00;99.90;;;;;;5146295;27;20047;-66
2021/11/04 08:37:22;;;;;;;9.48;7.65;;;7.10;99.90;;;;;;5146354;27;20023;-66
2021/11/04 08:39:47;;;;;;;10.70;8.23;;;7.10;99.90;;;;;;5141901;27;20437;-66
2021/11/04 08:42:15;;;;;;;7.70;6.57;;;7.10;99.90;;;;;;5140421;27;20031;-66
2021/11/04 08:44:41;;;;;;;7.22;4.18;;;7.70;99.90;;;;;;5135794;27;20034;-66
2021/11/04 08:47:09;;;;;;;8.18;6.40;;;8.40;99.90;;;;;;5135811;27;20030;-66
2021/11/04 08:49:35;;;;;;;7.75;5.88;;;9.40;99.90;;;;;;5135778;27;20075;-66
2021/11/04 08:52:01;;;;;;;6.13;5.53;;;9.70;99.90;;;;;;5135632;27;20023;-66
2021/11/04 08:54:28;;;;;;;8.98;5.82;;;9.80;99.90;;;;;;5135663;27;20038;-66
2021/11/04 08:56:53;;;;;;;7.03;5.95;;;9.80;99.90;;;;;;5135860;27;20076;-66
2021/11/04 08:59:19;;;;;;;8.60;5.80;;;9.90;99.90;;;;;;5134165;27;20096;-66
2021/11/04 09:01:46;;;;;;;7.05;5.25;;;9.90;99.90;;;;;;5135454;27;20514;-66
2021/11/04 09:04:12;;;;;;;6.10;5.40;;;9.90;99.90;;;;;;5135661;27;20035;-66
2021/11/04 09:06:39;;;;;;;8.13;5.13;;;9.90;99.90;;;;;;5135464;27;20102;-66
2021/11/04 09:09:04;;;;;;;7.63;5.50;;;9.80;99.90;;;;;;5135251;27;20054;-66
2021/11/04 09:11:30;;;;;;;8.63;5.50;;;9.90;99.90;;;;;;5135182;27;20068;-66
2021/11/04 09:14:00;;;;;;;6.60;5.05;;;9.90;99.90;;;;;;5135205;27;20011;-66
2021/11/04 09:16:27;;;;;;;7.20;5.13;;;10.00;99.90;;;;;;5134845;27;20027;-66
2021/11/04 09:18:53;;;;;;;5.35;4.55;;;10.10;99.90;;;;;;5133907;27;20019;-66
2021/11/04 09:21:19;;;;;;;7.85;5.35;;;10.20;99.90;;;;;;5135065;27;20111;-66
2021/11/04 09:23:45;;;;;;;5.95;5.00;;;10.30;99.90;;;;;;5134984;27;20039;-66
2021/11/04 09:26:11;;;;;;;5.18;4.22;;;10.30;99.90;;;;;;5135381;27;20031;-66
2021/11/04 09:28:38;;;;;;;6.97;4.82;;;10.30;99.90;;;;;;5134955;27;20457;-66
2021/11/04 09:31:05;;;;;;;5.95;4.90;;;10.30;99.90;;;;;;5135069;27;20482;-66
2021/11/04 09:33:31;;;;;;;6.15;5.25;;;10.30;99.90;;;;;;5135154;27;20061;-66
2021/11/04 09:35:56;;;;;;;6.70;5.20;;;10.40;99.90;;;;;;5134870;27;20026;-66
2021/11/04 09:38:22;;;;;;;4.85;4.20;;;10.40;99.90;;;;;;5134938;27;20023;-66
2021/11/04 09:40:48;;;;;;;5.65;4.75;;;10.40;99.90;;;;;;5134676;27;20027;-66
2021/11/04 09:43:14;;;;;;;7.80;4.40;;;10.40;99.90;;;;;;5134906;27;20039;-66
2021/11/04 09:45:40;;;;;;;5.10;3.05;;;10.40;99.90;;;;;;5134526;27;20030;-67
2021/11/04 09:48:06;;;;;;;6.10;4.55;;;10.80;99.90;;;;;;5134478;27;20019;-64
2021/11/04 09:50:32;;;;;;;4.18;3.70;;;11.40;99.90;;;;;;5148992;27;20034;-64
2021/11/04 09:52:57;;;;;;;4.95;4.20;;;11.10;99.90;;;;;;5155240;27;20046;-64
2021/11/04 09:55:27;;;;;;;5.72;4.55;;;10.50;99.90;;;;;;5155083;27;20030;-65
2021/11/04 09:57:58;;;;;;;6.45;4.65;;;10.00;99.90;;;;;;5155101;27;20043;-65
2021/11/04 10:00:41;;;;;;;5.03;4.53;;;9.60;99.90;;;;;;5154901;27;20163;-64
2021/11/04 10:03:09;;;;;;;5.95;4.20;;;9.30;99.90;;;;;;5155067;27;20103;-65
2021/11/04 10:05:46;;;;;;;4.78;4.35;;;9.50;99.90;;;;;;5149464;27;20152;-67
2021/11/04 10:08:15;;;;;;;6.55;4.65;;;9.50;99.90;;;;;;5144064;27;20011;-68
2021/11/04 10:10:42;;;;;;;5.18;4.25;;;9.30;99.90;;;;;;5142756;27;20118;-67
2021/11/04 10:13:10;;;;;;;5.25;4.63;;;9.10;99.90;;;;;;5131455;27;20038;-67
2021/11/04 10:15:39;;;;;;;4.97;4.47;;;8.90;99.90;;;;;;5140334;27;20050;-67
2021/11/04 10:18:20;;;;;;;5.50;4.82;;;8.90;99.90;;;;;;5143549;27;20519;-66
2021/11/04 10:20:57;;;;;;;5.80;4.75;;;8.80;99.90;;;;;;5142444;27;20015;-67
2021/11/04 10:23:25;;;;;;;6.95;5.00;;;8.60;99.90;;;;;;5142380;27;20030;-67
2021/11/04 10:26:01;;;;;;;5.95;4.85;;;8.60;99.90;;;;;;5148362;27;20011;-69
2021/11/04 10:28:30;;;;;;;7.90;4.85;;;8.50;99.90;;;;;;5154517;27;20046;-67
2021/11/04 10:30:57;;;;;;;6.90;5.38;;;8.30;99.90;;;;;;5154516;27;20049;-66
2021/11/04 10:33:23;;;;;;;6.13;5.25;;;8.30;99.90;;;;;;5153033;27;20029;-68
2021/11/04 10:36:05;;;;;;;6.32;5.28;;;8.20;99.90;;;;;;5154081;27;20019;-67
2021/11/04 10:38:38;;;;;;;6.22;5.13;;;8.20;99.90;;;;;;5138302;27;20031;-67
2021/11/04 10:41:12;;;;;;;6.63;5.25;;;8.10;99.90;;;;;;5136224;27;20022;-66
2021/11/04 10:43:39;;;;;;;7.38;5.75;;;8.20;99.90;;;;;;5144295;27;20062;-66
2021/11/04 10:46:06;;;;;;;6.40;5.38;;;8.10;99.90;;;;;;5141407;27;20031;-66
2021/11/04 10:48:34;;;;;;;9.10;5.47;;;8.10;99.90;;;;;;5144083;27;20558;-66
2021/11/04 10:51:00;;;;;;;7.05;5.65;;;8.10;99.90;;;;;;5147506;27;20033;-66
2021/11/04 10:53:26;;;;;;;6.50;5.15;;;8.10;99.90;;;;;;5154282;27;20106;-66
2021/11/04 10:56:13;;;;;;;5.68;5.07;;;8.00;99.90;;;;;;5153875;27;20414;-66
2021/11/04 10:58:39;;;;;;;6.43;4.78;;;8.00;99.90;;;;;;5154026;27;20048;-68
2021/11/04 11:01:04;;;;;;;6.07;5.05;;;8.00;99.90;;;;;;5152460;27;20049;-66
2021/11/04 11:03:31;;;;;;;6.60;5.03;;;7.90;99.90;;;;;;5149678;27;20058;-66
2021/11/04 11:05:59;;;;;;;5.63;4.80;;;7.90;99.90;;;;;;5132930;27;20371;-66
2021/11/04 11:08:26;;;;;;;6.10;5.07;;;7.90;99.90;;;;;;5133100;27;20155;-65
2021/11/04 11:10:52;;;;;;;6.32;5.55;;;7.90;99.90;;;;;;5133010;27;20398;-65
2021/11/04 11:13:18;;;;;;;6.07;5.45;;;7.90;99.90;;;;;;5133077;27;20110;-65
2021/11/04 11:15:53;;;;;;;6.57;4.82;;;8.30;99.90;;;;;;5132763;27;20475;-65
2021/11/04 11:18:25;;;;;;;5.45;4.55;;;8.30;99.90;;;;;;5131765;27;20030;-66
2021/11/04 11:20:52;;;;;;;5.10;4.32;;;8.20;99.90;;;;;;5133004;27;20023;-65
2021/11/04 11:23:19;;;;;;;5.38;4.63;;;8.00;99.90;;;;;;5132945;27;20031;-65
2021/11/04 11:25:56;;;;;;;5.70;4.55;;;8.00;99.90;;;;;;5132790;27;20030;-66
2021/11/04 11:28:28;;;;;;;5.63;4.72;;;7.90;99.90;;;;;;5132865;27;20027;-66
2021/11/04 11:31:15;;;;;;;5.55;4.60;;;7.80;99.90;;;;;;5132776;28;20011;-66
2021/11/04 11:34:08;;;;;;;5.22;4.68;;;7.60;99.90;;;;;;5132705;27;20034;-66
2021/11/04 11:36:35;;;;;;;6.75;5.30;;;7.60;99.90;;;;;;5122212;28;20066;-66
2021/11/04 11:39:05;;;;;;;6.50;5.07;;;7.60;99.90;;;;;;5132783;28;20106;-67
2021/11/04 11:41:32;;;;;;;6.15;4.65;;;7.60;99.90;;;;;;5133100;28;20015;-67
2021/11/04 11:43:59;;;;;;;5.45;4.22;;;7.50;99.90;;;;;;5132632;28;20039;-66
2021/11/04 11:46:26;;;;;;;7.55;5.20;;;7.50;99.90;;;;;;5149435;27;20109;-66
2021/11/04 11:49:10;;;;;;;6.53;4.47;;;7.50;99.90;;;;;;5153124;27;20027;-67
2021/11/04 11:51:53;;;;;;;6.72;4.57;;;7.50;99.90;;;;;;5153212;27;20057;-66
2021/11/04 11:54:19;;;;;;;5.35;4.35;;;7.50;99.90;;;;;;5146659;27;20027;-67
2021/11/04 11:57:09;;;;;;;6.18;4.47;;;7.40;99.90;;;;;;5135095;27;20071;-67
2021/11/04 11:59:54;;;;;;;5.30;4.30;;;7.40;99.90;;;;;;5132337;27;20463;-67
2021/11/04 12:02:54;;;;;;;6.43;4.60;;;7.40;99.90;;;;;;5132776;27;20035;-66
2021/11/04 12:05:23;;;;;;;5.50;4.82;;;7.50;99.90;;;;;;5138967;27;20031;-66
2021/11/04 12:08:09;;;;;;;6.13;5.18;;;7.50;99.90;;;;;;5136648;27;20050;-67
2021/11/04 12:10:39;;;;;;;6.30;4.90;;;7.60;99.90;;;;;;5125276;27;20031;-67
2021/11/04 12:13:05;;;;;;;;;;;7.50;99.90;;;;;;5137289;27;20055;-66
2021/11/04 12:15:31;;;;;;;6.40;4.30;;;7.50;99.90;;;;;;5136445;27;19946;-66
2021/11/04 12:18:18;;;;;;;6.57;4.75;;;7.50;99.90;;;;;;5136366;27;20027;-66
2021/11/04 12:20:55;;;;;;;9.07;5.40;;;7.50;99.90;;;;;;5136400;27;20386;-67
2021/11/04 12:23:29;;;;;;;7.80;5.47;;;7.40;99.90;;;;;;5136222;27;20027;-67
2021/11/04 12:25:54;;;;;;;5.18;4.68;;;7.40;99.90;;;;;;5135919;27;20042;-66
2021/11/04 12:28:20;;;;;;;6.07;4.15;;;7.50;99.90;;;;;;5149394;27;20482;-74
2021/11/04 12:30:47;;;;;;;7.43;3.95;;;7.70;99.90;;;;;;5137613;27;20098;-66
2021/11/04 12:33:14;;;;;;;6.25;4.13;;;10.40;99.90;;;;;;5141380;27;20471;-66
2021/11/04 12:35:52;;;;;;;6.20;4.07;;;11.10;99.90;;;;;;5135906;27;20083;-67
2021/11/04 12:38:21;;;;;;;4.80;3.92;;;10.30;99.90;;;;;;5136254;27;20087;-66
2021/11/04 12:41:00;;;;;;;7.10;4.50;;;9.50;99.90;;;;;;5135639;27;20478;-67
2021/11/04 12:43:32;;;;;;;4.30;3.90;;;9.00;99.90;;;;;;5136123;27;20045;-66
2021/11/04 12:46:15;;;;;;;4.32;3.40;;;8.60;99.90;;;;;;5135854;27;20019;-66
2021/11/04 12:48:50;;;;;;;4.63;3.83;;;8.40;99.90;;;;;;5135567;27;20031;-66
2021/11/04 12:51:17;;;;;;;5.22;4.30;;;8.20;99.90;;;;;;5135955;27;20141;-66
2021/11/04 12:54:00;;;;;;;5.00;3.78;;;8.00;99.90;;;;;;5135720;27;20040;-66
2021/11/04 12:56:44;;;;;;;4.90;4.13;;;7.90;99.90;;;;;;5135635;27;20023;-67
2021/11/04 12:59:39;;;;;;;5.70;4.00;;;7.80;99.90;;;;;;5135398;27;20042;-67
2021/11/04 13:02:25;;;;;;;4.93;4.32;;;7.80;99.90;;;;;;5129167;27;20061;-67
2021/11/04 13:04:55;;;;;;;5.47;4.70;;;7.70;99.90;;;;;;5135216;27;20035;-66
2021/11/04 13:07:39;;;;;;;4.93;4.30;;;7.70;99.90;;;;;;5135143;27;20019;-66
2021/11/04 13:10:22;;;;;;;5.40;4.47;;;7.60;99.90;;;;;;5135375;27;20625;-66
2021/11/04 13:12:50;;;;;;;4.93;4.35;;;7.60;99.90;;;;;;5134998;27;20019;-66
2021/11/04 13:15:18;;;;;;;5.28;4.50;;;7.50;99.90;;;;;;5134599;27;20015;-66
2021/11/04 13:17:46;;;;;;;5.00;4.25;;;7.50;99.90;;;;;;5134909;27;20371;-67
2021/11/04 13:20:24;;;;;;;5.15;4.65;;;7.50;99.90;;;;;;5135519;27;20103;-66
2021/11/04 13:22:58;;;;;;;6.35;4.68;;;7.50;99.90;;;;;;5134966;27;20043;-66
2021/11/04 13:25:28;;;;;;;5.45;4.57;;;7.40;99.90;;;;;;5135103;27;20027;-66
2021/11/04 13:28:03;;;;;;;4.90;4.40;;;7.40;99.90;;;;;;5134600;27;20042;-66